sensor_id;sensor_type;location;lat;lon;timestamp;temperature;humidity
2751;DHT22;1383;48.362;10.908;2023-04-25T00:01:54;8.60;56.40
2751;DHT22;1383;48.362;10.908;2023-04-25T00:04:23;8.60;57.40
2751;DHT22;1383;48.362;10.908;2023-04-25T00:06:50;8.60;58.20
2751;DHT22;1383;48.362;10.908;2023-04-25T00:09:18;8.60;58.50
2751;DHT22;1383;48.362;10.908;2023-04-25T00:11:45;8.50;59.40
2751;DHT22;1383;48.362;10.908;2023-04-25T00:14:12;8.50;60.00
2751;DHT22;1383;48.362;10.908;2023-04-25T00:16:39;8.50;60.30
2751;DHT22;1383;48.362;10.908;2023-04-25T00:19:07;8.50;60.90
2751;DHT22;1383;48.362;10.908;2023-04-25T00:21:36;8.50;60.90
2751;DHT22;1383;48.362;10.908;2023-04-25T00:24:07;8.60;60.40
2751;DHT22;1383;48.362;10.908;2023-04-25T00:26:35;8.60;60.00
2751;DHT22;1383;48.362;10.908;2023-04-25T00:29:02;8.70;59.50
2751;DHT22;1383;48.362;10.908;2023-04-25T00:31:29;8.70;59.10
2751;DHT22;1383;48.362;10.908;2023-04-25T00:33:56;8.70;59.30
2751;DHT22;1383;48.362;10.908;2023-04-25T00:36:23;8.60;59.30
2751;DHT22;1383;48.362;10.908;2023-04-25T00:38:50;8.60;59.50
2751;DHT22;1383;48.362;10.908;2023-04-25T00:41:17;8.60;60.30
2751;DHT22;1383;48.362;10.908;2023-04-25T00:43:45;8.50;60.30
2751;DHT22;1383;48.362;10.908;2023-04-25T00:46:12;8.50;60.30
2751;DHT22;1383;48.362;10.908;2023-04-25T00:48:39;8.40;60.50
2751;DHT22;1383;48.362;10.908;2023-04-25T00:51:06;8.30;61.20
2751;DHT22;1383;48.362;10.908;2023-04-25T00:53:33;8.30;61.50
2751;DHT22;1383;48.362;10.908;2023-04-25T00:56:00;8.40;61.60
2751;DHT22;1383;48.362;10.908;2023-04-25T00:58:27;8.40;61.80
2751;DHT22;1383;48.362;10.908;2023-04-25T01:00:55;8.40;61.80
2751;DHT22;1383;48.362;10.908;2023-04-25T01:03:22;8.40;61.70
2751;DHT22;1383;48.362;10.908;2023-04-25T01:05:50;8.40;61.50
2751;DHT22;1383;48.362;10.908;2023-04-25T01:08:17;8.40;61.50
2751;DHT22;1383;48.362;10.908;2023-04-25T01:10:44;8.40;61.90
2751;DHT22;1383;48.362;10.908;2023-04-25T01:13:10;8.30;62.20
2751;DHT22;1383;48.362;10.908;2023-04-25T01:15:37;8.30;63.10
2751;DHT22;1383;48.362;10.908;2023-04-25T01:18:05;8.30;62.80
2751;DHT22;1383;48.362;10.908;2023-04-25T01:20:33;8.30;63.10
2751;DHT22;1383;48.362;10.908;2023-04-25T01:23:01;8.30;62.70
2751;DHT22;1383;48.362;10.908;2023-04-25T01:25:32;8.40;63.20
2751;DHT22;1383;48.362;10.908;2023-04-25T01:27:59;8.40;63.10
2751;DHT22;1383;48.362;10.908;2023-04-25T01:30:27;8.40;62.90
2751;DHT22;1383;48.362;10.908;2023-04-25T01:32:56;8.40;63.10
2751;DHT22;1383;48.362;10.908;2023-04-25T01:35:23;8.50;62.90
2751;DHT22;1383;48.362;10.908;2023-04-25T01:37:51;8.40;62.90
2751;DHT22;1383;48.362;10.908;2023-04-25T01:40:21;8.40;63.30
2751;DHT22;1383;48.362;10.908;2023-04-25T01:42:49;8.40;62.00
2751;DHT22;1383;48.362;10.908;2023-04-25T01:45:16;8.40;63.00
2751;DHT22;1383;48.362;10.908;2023-04-25T01:47:43;8.30;63.80
2751;DHT22;1383;48.362;10.908;2023-04-25T01:50:13;8.30;63.60
2751;DHT22;1383;48.362;10.908;2023-04-25T01:52:40;8.20;64.20
2751;DHT22;1383;48.362;10.908;2023-04-25T01:55:07;8.20;64.40
2751;DHT22;1383;48.362;10.908;2023-04-25T01:57:34;8.10;64.30
2751;DHT22;1383;48.362;10.908;2023-04-25T02:00:04;8.10;65.00
2751;DHT22;1383;48.362;10.908;2023-04-25T02:02:31;8.00;65.40
2751;DHT22;1383;48.362;10.908;2023-04-25T02:04:58;8.00;65.90
2751;DHT22;1383;48.362;10.908;2023-04-25T02:07:26;8.10;65.90
2751;DHT22;1383;48.362;10.908;2023-04-25T02:09:53;8.10;65.50
2751;DHT22;1383;48.362;10.908;2023-04-25T02:12:19;8.10;65.40
2751;DHT22;1383;48.362;10.908;2023-04-25T02:14:46;8.10;65.50
2751;DHT22;1383;48.362;10.908;2023-04-25T02:17:13;8.00;65.80
2751;DHT22;1383;48.362;10.908;2023-04-25T02:19:40;8.10;65.70
2751;DHT22;1383;48.362;10.908;2023-04-25T02:22:07;8.00;66.00
2751;DHT22;1383;48.362;10.908;2023-04-25T02:24:34;8.00;65.40
2751;DHT22;1383;48.362;10.908;2023-04-25T02:27:01;8.10;65.70
2751;DHT22;1383;48.362;10.908;2023-04-25T02:29:29;8.10;65.80
2751;DHT22;1383;48.362;10.908;2023-04-25T02:31:56;8.10;65.70
2751;DHT22;1383;48.362;10.908;2023-04-25T02:34:23;8.20;65.30
2751;DHT22;1383;48.362;10.908;2023-04-25T02:36:49;8.20;65.30
2751;DHT22;1383;48.362;10.908;2023-04-25T02:39:17;8.20;65.10
2751;DHT22;1383;48.362;10.908;2023-04-25T02:41:44;8.30;64.90
2751;DHT22;1383;48.362;10.908;2023-04-25T02:44:11;8.30;64.70
2751;DHT22;1383;48.362;10.908;2023-04-25T02:46:38;8.30;64.70
2751;DHT22;1383;48.362;10.908;2023-04-25T02:49:06;8.30;64.70
2751;DHT22;1383;48.362;10.908;2023-04-25T02:51:33;8.40;64.00
2751;DHT22;1383;48.362;10.908;2023-04-25T02:54:00;8.50;63.90
2751;DHT22;1383;48.362;10.908;2023-04-25T02:56:27;8.50;63.40
2751;DHT22;1383;48.362;10.908;2023-04-25T02:58:54;8.60;63.00
2751;DHT22;1383;48.362;10.908;2023-04-25T03:01:20;8.70;62.10
2751;DHT22;1383;48.362;10.908;2023-04-25T03:03:47;8.70;61.40
2751;DHT22;1383;48.362;10.908;2023-04-25T03:06:15;8.70;61.70
2751;DHT22;1383;48.362;10.908;2023-04-25T03:08:42;8.80;60.60
2751;DHT22;1383;48.362;10.908;2023-04-25T03:11:09;8.90;60.60
2751;DHT22;1383;48.362;10.908;2023-04-25T03:13:37;8.90;59.80
2751;DHT22;1383;48.362;10.908;2023-04-25T03:16:04;8.90;58.80
2751;DHT22;1383;48.362;10.908;2023-04-25T03:18:31;8.90;58.20
2751;DHT22;1383;48.362;10.908;2023-04-25T03:20:58;9.00;58.00
2751;DHT22;1383;48.362;10.908;2023-04-25T03:23:25;9.00;57.40
2751;DHT22;1383;48.362;10.908;2023-04-25T03:25:52;8.90;57.80
2751;DHT22;1383;48.362;10.908;2023-04-25T03:28:19;9.00;58.50
2751;DHT22;1383;48.362;10.908;2023-04-25T03:30:46;9.00;58.40
2751;DHT22;1383;48.362;10.908;2023-04-25T03:33:13;9.00;58.10
2751;DHT22;1383;48.362;10.908;2023-04-25T03:35:40;9.00;57.70
2751;DHT22;1383;48.362;10.908;2023-04-25T03:38:06;9.10;57.60
2751;DHT22;1383;48.362;10.908;2023-04-25T03:40:33;9.10;58.10
2751;DHT22;1383;48.362;10.908;2023-04-25T03:43:00;9.10;57.50
2751;DHT22;1383;48.362;10.908;2023-04-25T03:45:27;9.20;57.30
2751;DHT22;1383;48.362;10.908;2023-04-25T03:47:54;9.20;56.60
2751;DHT22;1383;48.362;10.908;2023-04-25T03:50:21;9.20;56.60
2751;DHT22;1383;48.362;10.908;2023-04-25T03:52:47;9.30;56.40
2751;DHT22;1383;48.362;10.908;2023-04-25T03:55:14;9.30;56.10
2751;DHT22;1383;48.362;10.908;2023-04-25T03:57:41;9.30;55.90
2751;DHT22;1383;48.362;10.908;2023-04-25T04:00:08;9.30;55.80
2751;DHT22;1383;48.362;10.908;2023-04-25T04:02:35;9.20;55.60
2751;DHT22;1383;48.362;10.908;2023-04-25T04:05:04;9.20;56.00
2751;DHT22;1383;48.362;10.908;2023-04-25T04:07:32;9.10;56.00
2751;DHT22;1383;48.362;10.908;2023-04-25T04:09:59;9.20;56.30
2751;DHT22;1383;48.362;10.908;2023-04-25T04:12:26;9.20;55.70
2751;DHT22;1383;48.362;10.908;2023-04-25T04:14:53;9.20;55.40
2751;DHT22;1383;48.362;10.908;2023-04-25T04:17:20;9.20;55.40
2751;DHT22;1383;48.362;10.908;2023-04-25T04:19:47;9.20;55.20
2751;DHT22;1383;48.362;10.908;2023-04-25T04:22:13;9.20;55.10
2751;DHT22;1383;48.362;10.908;2023-04-25T04:24:40;9.20;54.80
2751;DHT22;1383;48.362;10.908;2023-04-25T04:27:10;9.20;54.60
2751;DHT22;1383;48.362;10.908;2023-04-25T04:29:39;9.20;54.50
2751;DHT22;1383;48.362;10.908;2023-04-25T04:32:06;9.20;54.60
2751;DHT22;1383;48.362;10.908;2023-04-25T04:34:35;9.30;54.40
2751;DHT22;1383;48.362;10.908;2023-04-25T04:37:02;9.30;54.50
2751;DHT22;1383;48.362;10.908;2023-04-25T04:39:29;9.30;54.40
2751;DHT22;1383;48.362;10.908;2023-04-25T04:41:56;9.40;54.60
2751;DHT22;1383;48.362;10.908;2023-04-25T04:44:23;9.30;54.20
2751;DHT22;1383;48.362;10.908;2023-04-25T04:46:50;9.40;54.50
2751;DHT22;1383;48.362;10.908;2023-04-25T04:49:17;9.40;54.60
2751;DHT22;1383;48.362;10.908;2023-04-25T04:51:44;9.40;55.00
2751;DHT22;1383;48.362;10.908;2023-04-25T04:54:11;9.30;55.30
2751;DHT22;1383;48.362;10.908;2023-04-25T04:56:38;9.20;56.20
2751;DHT22;1383;48.362;10.908;2023-04-25T04:59:04;9.20;57.30
2751;DHT22;1383;48.362;10.908;2023-04-25T05:01:31;9.30;58.00
2751;DHT22;1383;48.362;10.908;2023-04-25T05:03:58;9.30;57.70
2751;DHT22;1383;48.362;10.908;2023-04-25T05:06:28;9.40;57.80
2751;DHT22;1383;48.362;10.908;2023-04-25T05:08:58;9.40;57.90
2751;DHT22;1383;48.362;10.908;2023-04-25T05:11:25;9.40;56.90
2751;DHT22;1383;48.362;10.908;2023-04-25T05:13:52;9.40;56.90
2751;DHT22;1383;48.362;10.908;2023-04-25T05:16:20;9.40;57.20
2751;DHT22;1383;48.362;10.908;2023-04-25T05:18:48;9.40;57.10
2751;DHT22;1383;48.362;10.908;2023-04-25T05:21:15;9.40;57.70
2751;DHT22;1383;48.362;10.908;2023-04-25T05:23:42;9.40;58.70
2751;DHT22;1383;48.362;10.908;2023-04-25T05:26:09;9.30;58.60
2751;DHT22;1383;48.362;10.908;2023-04-25T05:28:40;9.20;59.30
2751;DHT22;1383;48.362;10.908;2023-04-25T05:31:09;9.10;60.20
2751;DHT22;1383;48.362;10.908;2023-04-25T05:33:36;9.10;62.10
2751;DHT22;1383;48.362;10.908;2023-04-25T05:36:03;9.00;62.50
2751;DHT22;1383;48.362;10.908;2023-04-25T05:38:30;9.00;62.20
2751;DHT22;1383;48.362;10.908;2023-04-25T05:41:00;8.90;62.60
2751;DHT22;1383;48.362;10.908;2023-04-25T05:43:27;8.90;62.80
2751;DHT22;1383;48.362;10.908;2023-04-25T05:45:54;8.90;64.20
2751;DHT22;1383;48.362;10.908;2023-04-25T05:48:21;9.00;64.60
2751;DHT22;1383;48.362;10.908;2023-04-25T05:50:48;9.10;63.80
2751;DHT22;1383;48.362;10.908;2023-04-25T05:53:15;9.20;64.40
2751;DHT22;1383;48.362;10.908;2023-04-25T05:55:41;9.20;64.20
2751;DHT22;1383;48.362;10.908;2023-04-25T05:58:08;9.20;62.10
2751;DHT22;1383;48.362;10.908;2023-04-25T06:00:35;9.30;62.60
2751;DHT22;1383;48.362;10.908;2023-04-25T06:03:02;9.50;61.70
2751;DHT22;1383;48.362;10.908;2023-04-25T06:05:30;9.60;61.30
2751;DHT22;1383;48.362;10.908;2023-04-25T06:07:57;9.70;59.30
2751;DHT22;1383;48.362;10.908;2023-04-25T06:10:24;9.90;60.20
2751;DHT22;1383;48.362;10.908;2023-04-25T06:12:51;10.10;58.20
2751;DHT22;1383;48.362;10.908;2023-04-25T06:15:17;10.40;57.30
2751;DHT22;1383;48.362;10.908;2023-04-25T06:17:54;10.50;55.80
2751;DHT22;1383;48.362;10.908;2023-04-25T06:20:21;10.50;56.00
2751;DHT22;1383;48.362;10.908;2023-04-25T06:22:51;10.30;53.90
2751;DHT22;1383;48.362;10.908;2023-04-25T06:25:18;10.20;54.40
2751;DHT22;1383;48.362;10.908;2023-04-25T06:27:45;10.40;55.10
2751;DHT22;1383;48.362;10.908;2023-04-25T06:30:12;10.50;53.80
2751;DHT22;1383;48.362;10.908;2023-04-25T06:32:39;10.70;53.80
2751;DHT22;1383;48.362;10.908;2023-04-25T06:35:06;11.10;52.20
2751;DHT22;1383;48.362;10.908;2023-04-25T06:37:33;11.30;51.30
2751;DHT22;1383;48.362;10.908;2023-04-25T06:40:00;11.60;49.80
2751;DHT22;1383;48.362;10.908;2023-04-25T06:42:26;11.80;49.40
2751;DHT22;1383;48.362;10.908;2023-04-25T06:44:53;11.80;47.80
2751;DHT22;1383;48.362;10.908;2023-04-25T06:47:21;11.80;48.00
2751;DHT22;1383;48.362;10.908;2023-04-25T06:49:49;11.80;47.00
2751;DHT22;1383;48.362;10.908;2023-04-25T06:52:15;11.40;47.00
2751;DHT22;1383;48.362;10.908;2023-04-25T06:54:44;11.30;47.30
2751;DHT22;1383;48.362;10.908;2023-04-25T06:57:11;11.20;47.20
2751;DHT22;1383;48.362;10.908;2023-04-25T06:59:38;11.10;47.40
2751;DHT22;1383;48.362;10.908;2023-04-25T07:02:05;11.10;47.60
2751;DHT22;1383;48.362;10.908;2023-04-25T07:04:32;11.10;47.20
2751;DHT22;1383;48.362;10.908;2023-04-25T07:06:59;11.20;47.60
2751;DHT22;1383;48.362;10.908;2023-04-25T07:09:29;11.20;46.70
2751;DHT22;1383;48.362;10.908;2023-04-25T07:11:56;11.30;46.50
2751;DHT22;1383;48.362;10.908;2023-04-25T07:14:23;11.40;45.90
2751;DHT22;1383;48.362;10.908;2023-04-25T07:16:50;11.50;45.30
2751;DHT22;1383;48.362;10.908;2023-04-25T07:19:17;11.40;46.30
2751;DHT22;1383;48.362;10.908;2023-04-25T07:21:44;11.60;46.00
2751;DHT22;1383;48.362;10.908;2023-04-25T07:24:11;11.70;44.60
2751;DHT22;1383;48.362;10.908;2023-04-25T07:26:37;11.80;45.30
2751;DHT22;1383;48.362;10.908;2023-04-25T07:29:04;12.00;44.50
2751;DHT22;1383;48.362;10.908;2023-04-25T07:31:31;12.40;43.00
2751;DHT22;1383;48.362;10.908;2023-04-25T07:33:58;12.60;43.30
2751;DHT22;1383;48.362;10.908;2023-04-25T07:36:27;13.00;41.20
2751;DHT22;1383;48.362;10.908;2023-04-25T07:38:54;13.30;40.60
2751;DHT22;1383;48.362;10.908;2023-04-25T07:41:21;13.70;40.20
2751;DHT22;1383;48.362;10.908;2023-04-25T07:43:48;14.00;38.80
2751;DHT22;1383;48.362;10.908;2023-04-25T07:46:15;14.30;38.00
2751;DHT22;1383;48.362;10.908;2023-04-25T07:48:42;14.60;37.30
2751;DHT22;1383;48.362;10.908;2023-04-25T07:51:09;14.80;35.40
2751;DHT22;1383;48.362;10.908;2023-04-25T07:53:35;15.00;34.80
2751;DHT22;1383;48.362;10.908;2023-04-25T07:56:05;14.90;33.60
2751;DHT22;1383;48.362;10.908;2023-04-25T07:58:32;14.90;34.30
2751;DHT22;1383;48.362;10.908;2023-04-25T08:00:59;14.70;33.50
2751;DHT22;1383;48.362;10.908;2023-04-25T08:03:26;14.70;33.70
2751;DHT22;1383;48.362;10.908;2023-04-25T08:05:53;14.90;34.20
2751;DHT22;1383;48.362;10.908;2023-04-25T08:08:20;15.20;33.90
2751;DHT22;1383;48.362;10.908;2023-04-25T08:10:47;15.50;31.90
2751;DHT22;1383;48.362;10.908;2023-04-25T08:13:14;15.70;29.70
2751;DHT22;1383;48.362;10.908;2023-04-25T08:15:41;15.80;30.20
2751;DHT22;1383;48.362;10.908;2023-04-25T08:18:08;15.90;29.10
2751;DHT22;1383;48.362;10.908;2023-04-25T08:20:35;15.80;29.70
2751;DHT22;1383;48.362;10.908;2023-04-25T08:23:02;16.00;29.10
2751;DHT22;1383;48.362;10.908;2023-04-25T08:25:29;16.30;28.80
2751;DHT22;1383;48.362;10.908;2023-04-25T08:27:55;16.70;27.80
2751;DHT22;1383;48.362;10.908;2023-04-25T08:30:23;17.10;27.50
2751;DHT22;1383;48.362;10.908;2023-04-25T08:32:50;17.40;26.70
2751;DHT22;1383;48.362;10.908;2023-04-25T08:35:17;17.70;25.80
2751;DHT22;1383;48.362;10.908;2023-04-25T08:37:44;18.00;25.30
2751;DHT22;1383;48.362;10.908;2023-04-25T08:40:14;17.90;24.60
2751;DHT22;1383;48.362;10.908;2023-04-25T08:42:42;17.80;23.80
2751;DHT22;1383;48.362;10.908;2023-04-25T08:45:10;17.40;24.30
2751;DHT22;1383;48.362;10.908;2023-04-25T08:47:38;17.20;24.70
2751;DHT22;1383;48.362;10.908;2023-04-25T08:50:06;16.70;25.90
2751;DHT22;1383;48.362;10.908;2023-04-25T08:52:43;16.60;26.10
2751;DHT22;1383;48.362;10.908;2023-04-25T08:55:12;16.80;26.80
2751;DHT22;1383;48.362;10.908;2023-04-25T08:57:41;16.90;24.70
2751;DHT22;1383;48.362;10.908;2023-04-25T09:00:12;16.80;24.70
2751;DHT22;1383;48.362;10.908;2023-04-25T09:02:39;16.50;25.10
2751;DHT22;1383;48.362;10.908;2023-04-25T09:05:22;16.30;24.80
2751;DHT22;1383;48.362;10.908;2023-04-25T09:07:49;16.10;25.50
2751;DHT22;1383;48.362;10.908;2023-04-25T09:10:16;15.90;26.00
2751;DHT22;1383;48.362;10.908;2023-04-25T09:12:43;15.70;26.00
2751;DHT22;1383;48.362;10.908;2023-04-25T09:15:12;15.40;26.30
2751;DHT22;1383;48.362;10.908;2023-04-25T09:17:55;15.00;26.70
2751;DHT22;1383;48.362;10.908;2023-04-25T09:20:22;14.80;27.80
2751;DHT22;1383;48.362;10.908;2023-04-25T09:22:49;14.60;27.90
2751;DHT22;1383;48.362;10.908;2023-04-25T09:25:16;14.60;27.70
2751;DHT22;1383;48.362;10.908;2023-04-25T09:27:53;14.40;27.40
2751;DHT22;1383;48.362;10.908;2023-04-25T09:30:29;14.40;27.50
2751;DHT22;1383;48.362;10.908;2023-04-25T09:32:57;14.40;27.80
2751;DHT22;1383;48.362;10.908;2023-04-25T09:35:39;14.30;27.30
2751;DHT22;1383;48.362;10.908;2023-04-25T09:38:13;14.60;27.10
2751;DHT22;1383;48.362;10.908;2023-04-25T09:40:44;14.50;26.60
2751;DHT22;1383;48.362;10.908;2023-04-25T09:43:22;14.60;27.10
2751;DHT22;1383;48.362;10.908;2023-04-25T09:45:51;14.30;27.70
2751;DHT22;1383;48.362;10.908;2023-04-25T09:48:21;14.30;28.10
2751;DHT22;1383;48.362;10.908;2023-04-25T09:51:08;14.20;28.30
2751;DHT22;1383;48.362;10.908;2023-04-25T09:53:40;14.10;29.00
2751;DHT22;1383;48.362;10.908;2023-04-25T09:56:09;13.90;29.00
2751;DHT22;1383;48.362;10.908;2023-04-25T09:58:38;13.70;30.30
2751;DHT22;1383;48.362;10.908;2023-04-25T10:01:06;13.20;30.30
2751;DHT22;1383;48.362;10.908;2023-04-25T10:03:37;12.80;32.10
2751;DHT22;1383;48.362;10.908;2023-04-25T10:06:12;12.40;36.10
2751;DHT22;1383;48.362;10.908;2023-04-25T10:08:41;12.00;39.10
2751;DHT22;1383;48.362;10.908;2023-04-25T10:11:10;11.70;40.50
2751;DHT22;1383;48.362;10.908;2023-04-25T10:13:36;11.50;42.30
2751;DHT22;1383;48.362;10.908;2023-04-25T10:16:04;11.30;44.00
2751;DHT22;1383;48.362;10.908;2023-04-25T10:18:32;11.00;43.30
2751;DHT22;1383;48.362;10.908;2023-04-25T10:21:04;10.80;43.30
2751;DHT22;1383;48.362;10.908;2023-04-25T10:23:32;10.80;43.00
2751;DHT22;1383;48.362;10.908;2023-04-25T10:26:01;10.80;43.80
2751;DHT22;1383;48.362;10.908;2023-04-25T10:28:28;10.80;44.70
2751;DHT22;1383;48.362;10.908;2023-04-25T10:31:04;11.00;45.30
2751;DHT22;1383;48.362;10.908;2023-04-25T10:33:39;11.10;44.50
2751;DHT22;1383;48.362;10.908;2023-04-25T10:36:14;11.20;42.90
2751;DHT22;1383;48.362;10.908;2023-04-25T10:38:45;11.40;43.10
2751;DHT22;1383;48.362;10.908;2023-04-25T10:41:13;11.70;42.90
2751;DHT22;1383;48.362;10.908;2023-04-25T10:43:44;12.00;39.30
2751;DHT22;1383;48.362;10.908;2023-04-25T10:46:26;12.30;39.20
2751;DHT22;1383;48.362;10.908;2023-04-25T10:48:58;12.50;37.50
2751;DHT22;1383;48.362;10.908;2023-04-25T10:51:32;12.50;36.20
2751;DHT22;1383;48.362;10.908;2023-04-25T10:54:17;12.70;36.30
2751;DHT22;1383;48.362;10.908;2023-04-25T10:56:44;12.70;36.50
2751;DHT22;1383;48.362;10.908;2023-04-25T10:59:16;12.90;37.30
2751;DHT22;1383;48.362;10.908;2023-04-25T11:01:45;12.80;36.40
2751;DHT22;1383;48.362;10.908;2023-04-25T11:04:29;12.90;35.80
2751;DHT22;1383;48.362;10.908;2023-04-25T11:09:34;13.20;34.70
2751;DHT22;1383;48.362;10.908;2023-04-25T11:12:01;13.00;33.60
2751;DHT22;1383;48.362;10.908;2023-04-25T11:14:28;13.10;33.60
2751;DHT22;1383;48.362;10.908;2023-04-25T11:16:55;13.20;34.20
2751;DHT22;1383;48.362;10.908;2023-04-25T11:19:26;13.30;33.90
2751;DHT22;1383;48.362;10.908;2023-04-25T11:22:00;13.50;33.20
2751;DHT22;1383;48.362;10.908;2023-04-25T11:24:28;13.40;34.80
2751;DHT22;1383;48.362;10.908;2023-04-25T11:26:56;13.30;34.80
2751;DHT22;1383;48.362;10.908;2023-04-25T11:29:23;13.30;35.10
2751;DHT22;1383;48.362;10.908;2023-04-25T11:31:54;13.20;35.40
2751;DHT22;1383;48.362;10.908;2023-04-25T11:34:25;13.20;35.70
2751;DHT22;1383;48.362;10.908;2023-04-25T11:36:53;13.10;36.30
2751;DHT22;1383;48.362;10.908;2023-04-25T11:39:20;12.50;38.40
2751;DHT22;1383;48.362;10.908;2023-04-25T11:41:47;11.90;42.60
2751;DHT22;1383;48.362;10.908;2023-04-25T11:44:18;11.40;46.60
2751;DHT22;1383;48.362;10.908;2023-04-25T11:46:46;11.20;51.90
2751;DHT22;1383;48.362;10.908;2023-04-25T11:49:14;10.90;53.30
2751;DHT22;1383;48.362;10.908;2023-04-25T11:51:42;10.50;56.20
2751;DHT22;1383;48.362;10.908;2023-04-25T11:54:10;10.20;59.80
2751;DHT22;1383;48.362;10.908;2023-04-25T11:56:44;10.00;61.50
2751;DHT22;1383;48.362;10.908;2023-04-25T11:59:12;9.70;64.00
2751;DHT22;1383;48.362;10.908;2023-04-25T12:01:47;9.70;66.90
2751;DHT22;1383;48.362;10.908;2023-04-25T12:04:21;9.80;67.40
2751;DHT22;1383;48.362;10.908;2023-04-25T12:06:53;9.80;66.90
2751;DHT22;1383;48.362;10.908;2023-04-25T12:09:27;9.70;67.00
2751;DHT22;1383;48.362;10.908;2023-04-25T12:11:56;9.60;68.00
2751;DHT22;1383;48.362;10.908;2023-04-25T12:14:24;9.60;69.20
2751;DHT22;1383;48.362;10.908;2023-04-25T12:16:51;9.50;71.50
2751;DHT22;1383;48.362;10.908;2023-04-25T12:19:19;9.50;72.80
2751;DHT22;1383;48.362;10.908;2023-04-25T12:21:48;9.30;71.80
2751;DHT22;1383;48.362;10.908;2023-04-25T12:24:25;9.30;73.50
2751;DHT22;1383;48.362;10.908;2023-04-25T12:27:02;9.30;71.80
2751;DHT22;1383;48.362;10.908;2023-04-25T12:29:31;9.30;70.10
2751;DHT22;1383;48.362;10.908;2023-04-25T12:32:13;9.10;65.70
2751;DHT22;1383;48.362;10.908;2023-04-25T12:34:40;9.00;65.70
2751;DHT22;1383;48.362;10.908;2023-04-25T12:37:07;9.00;67.60
2751;DHT22;1383;48.362;10.908;2023-04-25T12:39:34;8.90;67.90
2751;DHT22;1383;48.362;10.908;2023-04-25T12:42:01;8.80;70.30
2751;DHT22;1383;48.362;10.908;2023-04-25T12:44:27;8.70;73.00
2751;DHT22;1383;48.362;10.908;2023-04-25T12:46:54;8.70;73.40
2751;DHT22;1383;48.362;10.908;2023-04-25T12:49:21;8.70;75.10
2751;DHT22;1383;48.362;10.908;2023-04-25T12:51:49;8.80;73.70
2751;DHT22;1383;48.362;10.908;2023-04-25T12:54:16;8.90;74.30
2751;DHT22;1383;48.362;10.908;2023-04-25T12:56:42;8.90;71.60
2751;DHT22;1383;48.362;10.908;2023-04-25T12:59:09;8.90;69.70
2751;DHT22;1383;48.362;10.908;2023-04-25T13:01:37;8.80;65.80
2751;DHT22;1383;48.362;10.908;2023-04-25T13:04:04;8.70;68.30
2751;DHT22;1383;48.362;10.908;2023-04-25T13:06:31;8.60;68.20
2751;DHT22;1383;48.362;10.908;2023-04-25T13:09:15;8.70;66.80
2751;DHT22;1383;48.362;10.908;2023-04-25T13:11:42;8.70;65.50
2751;DHT22;1383;48.362;10.908;2023-04-25T13:14:09;8.70;66.20
2751;DHT22;1383;48.362;10.908;2023-04-25T13:16:36;8.90;68.10
2751;DHT22;1383;48.362;10.908;2023-04-25T13:19:03;8.90;66.90
2751;DHT22;1383;48.362;10.908;2023-04-25T13:21:30;8.90;66.80
2751;DHT22;1383;48.362;10.908;2023-04-25T13:24:00;9.10;67.90
2751;DHT22;1383;48.362;10.908;2023-04-25T13:26:27;9.30;67.70
2751;DHT22;1383;48.362;10.908;2023-04-25T13:28:54;9.40;65.90
2751;DHT22;1383;48.362;10.908;2023-04-25T13:31:20;9.40;65.20
2751;DHT22;1383;48.362;10.908;2023-04-25T13:33:48;9.40;66.20
2751;DHT22;1383;48.362;10.908;2023-04-25T13:36:15;9.60;66.90
2751;DHT22;1383;48.362;10.908;2023-04-25T13:38:42;9.80;67.60
2751;DHT22;1383;48.362;10.908;2023-04-25T13:41:10;10.00;66.80
2751;DHT22;1383;48.362;10.908;2023-04-25T13:43:42;10.10;65.00
2751;DHT22;1383;48.362;10.908;2023-04-25T13:46:09;10.20;63.20
2751;DHT22;1383;48.362;10.908;2023-04-25T13:48:56;10.20;64.50
2751;DHT22;1383;48.362;10.908;2023-04-25T13:51:31;10.10;64.20
2751;DHT22;1383;48.362;10.908;2023-04-25T13:53:58;10.00;64.70
2751;DHT22;1383;48.362;10.908;2023-04-25T13:56:26;10.10;65.70
2751;DHT22;1383;48.362;10.908;2023-04-25T13:58:53;10.10;62.80
2751;DHT22;1383;48.362;10.908;2023-04-25T14:01:20;10.00;63.10
2751;DHT22;1383;48.362;10.908;2023-04-25T14:03:47;10.00;63.90
2751;DHT22;1383;48.362;10.908;2023-04-25T14:06:15;10.00;63.30
2751;DHT22;1383;48.362;10.908;2023-04-25T14:08:47;9.90;65.40
2751;DHT22;1383;48.362;10.908;2023-04-25T14:11:14;9.80;67.90
2751;DHT22;1383;48.362;10.908;2023-04-25T14:13:41;9.70;69.00
2751;DHT22;1383;48.362;10.908;2023-04-25T14:16:08;9.60;69.80
2751;DHT22;1383;48.362;10.908;2023-04-25T14:18:35;9.50;71.40
2751;DHT22;1383;48.362;10.908;2023-04-25T14:21:02;9.40;70.40
2751;DHT22;1383;48.362;10.908;2023-04-25T14:23:29;9.40;70.90
2751;DHT22;1383;48.362;10.908;2023-04-25T14:25:56;9.40;68.50
2751;DHT22;1383;48.362;10.908;2023-04-25T14:28:23;9.40;68.30
2751;DHT22;1383;48.362;10.908;2023-04-25T14:30:49;9.40;67.80
2751;DHT22;1383;48.362;10.908;2023-04-25T14:33:16;9.40;69.00
2751;DHT22;1383;48.362;10.908;2023-04-25T14:35:43;9.30;69.50
2751;DHT22;1383;48.362;10.908;2023-04-25T14:38:10;9.40;70.10
2751;DHT22;1383;48.362;10.908;2023-04-25T14:40:37;9.40;71.60
2751;DHT22;1383;48.362;10.908;2023-04-25T14:43:04;9.50;71.70
2751;DHT22;1383;48.362;10.908;2023-04-25T14:45:33;9.60;69.20
2751;DHT22;1383;48.362;10.908;2023-04-25T14:48:00;9.60;64.70
2751;DHT22;1383;48.362;10.908;2023-04-25T14:50:27;9.70;66.30
2751;DHT22;1383;48.362;10.908;2023-04-25T14:52:54;9.90;66.10
2751;DHT22;1383;48.362;10.908;2023-04-25T14:55:25;10.10;65.60
2751;DHT22;1383;48.362;10.908;2023-04-25T14:57:55;10.30;63.60
2751;DHT22;1383;48.362;10.908;2023-04-25T15:00:23;10.30;63.20
2751;DHT22;1383;48.362;10.908;2023-04-25T15:02:51;10.30;61.50
2751;DHT22;1383;48.362;10.908;2023-04-25T15:05:18;10.20;60.80
2751;DHT22;1383;48.362;10.908;2023-04-25T15:07:46;10.10;62.30
2751;DHT22;1383;48.362;10.908;2023-04-25T15:10:14;10.00;61.90
2751;DHT22;1383;48.362;10.908;2023-04-25T15:12:43;9.90;63.10
2751;DHT22;1383;48.362;10.908;2023-04-25T15:15:13;9.90;63.40
2751;DHT22;1383;48.362;10.908;2023-04-25T15:17:51;9.80;63.20
2751;DHT22;1383;48.362;10.908;2023-04-25T15:20:18;9.80;66.00
2751;DHT22;1383;48.362;10.908;2023-04-25T15:22:45;9.80;66.00
2751;DHT22;1383;48.362;10.908;2023-04-25T15:25:12;9.80;66.70
2751;DHT22;1383;48.362;10.908;2023-04-25T15:27:39;9.90;67.00
2751;DHT22;1383;48.362;10.908;2023-04-25T15:30:09;9.90;66.50
2751;DHT22;1383;48.362;10.908;2023-04-25T15:32:37;10.10;65.90
2751;DHT22;1383;48.362;10.908;2023-04-25T15:35:05;10.30;65.80
2751;DHT22;1383;48.362;10.908;2023-04-25T15:37:33;10.40;62.40
2751;DHT22;1383;48.362;10.908;2023-04-25T15:40:05;10.40;61.70
2751;DHT22;1383;48.362;10.908;2023-04-25T15:45:07;10.50;61.70
2751;DHT22;1383;48.362;10.908;2023-04-25T15:47:35;10.60;61.20
2751;DHT22;1383;48.362;10.908;2023-04-25T15:50:03;10.70;61.30
2751;DHT22;1383;48.362;10.908;2023-04-25T15:52:32;10.90;61.50
2751;DHT22;1383;48.362;10.908;2023-04-25T15:54:59;10.80;59.80
2751;DHT22;1383;48.362;10.908;2023-04-25T15:57:27;10.90;59.70
2751;DHT22;1383;48.362;10.908;2023-04-25T15:59:53;10.90;59.00
2751;DHT22;1383;48.362;10.908;2023-04-25T16:02:20;10.90;58.60
2751;DHT22;1383;48.362;10.908;2023-04-25T16:04:47;11.10;58.90
2751;DHT22;1383;48.362;10.908;2023-04-25T16:07:14;11.20;57.40